sensor_id;sensor_type;location;lat;lon;timestamp;P1;durP1;ratioP1;P2;durP2;ratioP2
64225;SDS011;50545;56.064;26.178;2022-10-16T00:01:25;11.23;;;4.90;;
64225;SDS011;50545;56.064;26.178;2022-10-16T00:03:54;8.00;;;4.32;;
64225;SDS011;50545;56.064;26.178;2022-10-16T00:06:23;9.60;;;4.70;;
64225;SDS011;50545;56.064;26.178;2022-10-16T00:08:51;9.05;;;4.95;;
64225;SDS011;50545;56.064;26.178;2022-10-16T00:11:23;7.40;;;4.38;;
64225;SDS011;50545;56.064;26.178;2022-10-16T00:13:54;8.80;;;4.70;;
64225;SDS011;50545;56.064;26.178;2022-10-16T00:16:23;8.98;;;4.40;;
64225;SDS011;50545;56.064;26.178;2022-10-16T00:18:51;6.90;;;3.97;;
64225;SDS011;50545;56.064;26.178;2022-10-16T00:21:19;7.22;;;4.53;;
64225;SDS011;50545;56.064;26.178;2022-10-16T00:23:55;9.85;;;4.75;;
64225;SDS011;50545;56.064;26.178;2022-10-16T00:26:31;10.35;;;4.80;;
64225;SDS011;50545;56.064;26.178;2022-10-16T00:29:00;7.43;;;4.30;;
64225;SDS011;50545;56.064;26.178;2022-10-16T00:31:28;7.15;;;4.00;;
64225;SDS011;50545;56.064;26.178;2022-10-16T00:33:56;8.82;;;5.13;;
64225;SDS011;50545;56.064;26.178;2022-10-16T00:36:24;11.18;;;4.78;;
64225;SDS011;50545;56.064;26.178;2022-10-16T00:38:52;9.18;;;5.38;;
64225;SDS011;50545;56.064;26.178;2022-10-16T00:41:22;9.25;;;5.22;;
64225;SDS011;50545;56.064;26.178;2022-10-16T00:43:57;8.65;;;4.85;;
64225;SDS011;50545;56.064;26.178;2022-10-16T00:51:37;9.15;;;4.65;;
64225;SDS011;50545;56.064;26.178;2022-10-16T00:54:22;9.45;;;4.35;;
64225;SDS011;50545;56.064;26.178;2022-10-16T00:56:56;7.67;;;4.10;;
64225;SDS011;50545;56.064;26.178;2022-10-16T00:59:28;9.27;;;4.28;;
64225;SDS011;50545;56.064;26.178;2022-10-16T01:01:57;8.40;;;4.70;;
64225;SDS011;50545;56.064;26.178;2022-10-16T01:04:25;10.88;;;4.70;;
64225;SDS011;50545;56.064;26.178;2022-10-16T01:07:00;8.02;;;4.43;;
64225;SDS011;50545;56.064;26.178;2022-10-16T01:12:48;7.43;;;4.07;;
64225;SDS011;50545;56.064;26.178;2022-10-16T01:18:16;7.68;;;4.57;;
64225;SDS011;50545;56.064;26.178;2022-10-16T01:21:10;9.68;;;4.78;;
64225;SDS011;50545;56.064;26.178;2022-10-16T01:23:47;8.57;;;4.55;;
64225;SDS011;50545;56.064;26.178;2022-10-16T01:26:35;10.40;;;5.85;;
64225;SDS011;50545;56.064;26.178;2022-10-16T01:31:54;6.72;;;3.92;;
64225;SDS011;50545;56.064;26.178;2022-10-16T01:34:31;9.30;;;5.03;;
64225;SDS011;50545;56.064;26.178;2022-10-16T01:37:08;9.00;;;5.38;;
64225;SDS011;50545;56.064;26.178;2022-10-16T01:39:40;8.77;;;5.32;;
64225;SDS011;50545;56.064;26.178;2022-10-16T01:42:21;9.52;;;4.72;;
64225;SDS011;50545;56.064;26.178;2022-10-16T01:47:21;10.05;;;4.57;;
64225;SDS011;50545;56.064;26.178;2022-10-16T01:49:51;9.30;;;5.53;;
64225;SDS011;50545;56.064;26.178;2022-10-16T01:52:21;9.50;;;5.38;;
64225;SDS011;50545;56.064;26.178;2022-10-16T01:54:53;10.32;;;5.68;;
64225;SDS011;50545;56.064;26.178;2022-10-16T01:57:23;10.43;;;5.53;;
64225;SDS011;50545;56.064;26.178;2022-10-16T01:59:53;8.65;;;5.57;;
64225;SDS011;50545;56.064;26.178;2022-10-16T02:02:24;8.52;;;5.13;;
64225;SDS011;50545;56.064;26.178;2022-10-16T02:05:02;11.57;;;5.38;;
64225;SDS011;50545;56.064;26.178;2022-10-16T02:07:34;8.75;;;5.40;;
64225;SDS011;50545;56.064;26.178;2022-10-16T02:10:02;9.02;;;5.65;;
64225;SDS011;50545;56.064;26.178;2022-10-16T02:12:30;8.63;;;5.28;;
64225;SDS011;50545;56.064;26.178;2022-10-16T02:15:00;9.40;;;5.10;;
64225;SDS011;50545;56.064;26.178;2022-10-16T02:17:27;8.10;;;5.18;;
64225;SDS011;50545;56.064;26.178;2022-10-16T02:19:55;9.57;;;5.60;;
64225;SDS011;50545;56.064;26.178;2022-10-16T02:22:27;9.25;;;5.32;;
64225;SDS011;50545;56.064;26.178;2022-10-16T02:24:59;9.00;;;5.13;;
64225;SDS011;50545;56.064;26.178;2022-10-16T02:30:51;9.32;;;5.30;;
64225;SDS011;50545;56.064;26.178;2022-10-16T02:33:24;9.43;;;4.97;;
64225;SDS011;50545;56.064;26.178;2022-10-16T02:35:54;9.02;;;5.40;;
64225;SDS011;50545;56.064;26.178;2022-10-16T02:38:22;8.57;;;5.18;;
64225;SDS011;50545;56.064;26.178;2022-10-16T02:40:50;9.18;;;5.32;;
64225;SDS011;50545;56.064;26.178;2022-10-16T02:43:18;9.38;;;5.07;;
64225;SDS011;50545;56.064;26.178;2022-10-16T02:45:46;8.02;;;4.95;;
64225;SDS011;50545;56.064;26.178;2022-10-16T02:48:13;7.13;;;4.80;;
64225;SDS011;50545;56.064;26.178;2022-10-16T02:50:41;9.73;;;5.40;;
64225;SDS011;50545;56.064;26.178;2022-10-16T02:53:08;10.93;;;5.88;;
64225;SDS011;50545;56.064;26.178;2022-10-16T02:55:35;10.07;;;5.40;;
64225;SDS011;50545;56.064;26.178;2022-10-16T02:58:03;8.13;;;5.25;;
64225;SDS011;50545;56.064;26.178;2022-10-16T03:00:30;9.07;;;5.70;;
64225;SDS011;50545;56.064;26.178;2022-10-16T03:02:57;8.75;;;4.75;;
64225;SDS011;50545;56.064;26.178;2022-10-16T03:05:24;8.35;;;4.70;;
64225;SDS011;50545;56.064;26.178;2022-10-16T03:07:52;8.82;;;5.57;;
64225;SDS011;50545;56.064;26.178;2022-10-16T03:10:19;9.20;;;5.28;;
64225;SDS011;50545;56.064;26.178;2022-10-16T03:12:46;8.63;;;5.07;;
64225;SDS011;50545;56.064;26.178;2022-10-16T03:15:14;9.32;;;5.38;;
64225;SDS011;50545;56.064;26.178;2022-10-16T03:17:42;8.32;;;4.60;;
64225;SDS011;50545;56.064;26.178;2022-10-16T03:20:09;10.70;;;4.97;;
64225;SDS011;50545;56.064;26.178;2022-10-16T03:22:37;10.07;;;5.63;;
64225;SDS011;50545;56.064;26.178;2022-10-16T03:25:04;7.97;;;5.28;;
64225;SDS011;50545;56.064;26.178;2022-10-16T03:27:32;9.82;;;5.70;;
64225;SDS011;50545;56.064;26.178;2022-10-16T03:29:59;8.48;;;5.07;;
64225;SDS011;50545;56.064;26.178;2022-10-16T03:32:26;8.35;;;5.45;;
64225;SDS011;50545;56.064;26.178;2022-10-16T03:34:55;11.75;;;6.18;;
64225;SDS011;50545;56.064;26.178;2022-10-16T03:37:23;8.75;;;5.22;;
64225;SDS011;50545;56.064;26.178;2022-10-16T03:39:51;9.02;;;5.20;;
64225;SDS011;50545;56.064;26.178;2022-10-16T03:42:18;10.75;;;5.78;;
64225;SDS011;50545;56.064;26.178;2022-10-16T03:44:45;8.88;;;5.25;;
64225;SDS011;50545;56.064;26.178;2022-10-16T03:47:13;10.45;;;5.40;;
64225;SDS011;50545;56.064;26.178;2022-10-16T03:49:40;9.30;;;5.68;;
64225;SDS011;50545;56.064;26.178;2022-10-16T03:52:07;8.65;;;5.43;;
64225;SDS011;50545;56.064;26.178;2022-10-16T03:54:34;9.93;;;5.18;;
64225;SDS011;50545;56.064;26.178;2022-10-16T03:57:02;8.38;;;5.15;;
64225;SDS011;50545;56.064;26.178;2022-10-16T03:59:29;9.45;;;6.03;;
64225;SDS011;50545;56.064;26.178;2022-10-16T04:01:56;8.68;;;5.47;;
64225;SDS011;50545;56.064;26.178;2022-10-16T04:04:23;11.18;;;6.07;;
64225;SDS011;50545;56.064;26.178;2022-10-16T04:06:51;9.07;;;5.85;;
64225;SDS011;50545;56.064;26.178;2022-10-16T04:09:18;8.55;;;5.65;;
64225;SDS011;50545;56.064;26.178;2022-10-16T04:11:46;11.20;;;5.95;;
64225;SDS011;50545;56.064;26.178;2022-10-16T04:14:13;10.68;;;5.53;;
64225;SDS011;50545;56.064;26.178;2022-10-16T04:16:40;9.30;;;5.65;;
64225;SDS011;50545;56.064;26.178;2022-10-16T04:19:08;9.80;;;5.82;;
64225;SDS011;50545;56.064;26.178;2022-10-16T04:21:36;10.75;;;5.97;;
64225;SDS011;50545;56.064;26.178;2022-10-16T04:24:03;9.65;;;5.65;;
64225;SDS011;50545;56.064;26.178;2022-10-16T04:26:31;9.57;;;5.80;;
64225;SDS011;50545;56.064;26.178;2022-10-16T04:28:58;10.38;;;6.43;;
64225;SDS011;50545;56.064;26.178;2022-10-16T04:31:25;11.07;;;5.97;;
64225;SDS011;50545;56.064;26.178;2022-10-16T04:33:52;8.75;;;5.45;;
64225;SDS011;50545;56.064;26.178;2022-10-16T04:36:20;12.35;;;6.72;;
64225;SDS011;50545;56.064;26.178;2022-10-16T04:38:52;13.43;;;6.25;;
64225;SDS011;50545;56.064;26.178;2022-10-16T04:41:19;10.25;;;6.30;;
64225;SDS011;50545;56.064;26.178;2022-10-16T04:43:46;12.10;;;6.80;;
64225;SDS011;50545;56.064;26.178;2022-10-16T04:46:13;11.43;;;6.72;;
64225;SDS011;50545;56.064;26.178;2022-10-16T04:48:40;10.52;;;6.15;;
64225;SDS011;50545;56.064;26.178;2022-10-16T04:51:08;9.35;;;5.57;;
64225;SDS011;50545;56.064;26.178;2022-10-16T04:53:35;14.23;;;7.18;;
64225;SDS011;50545;56.064;26.178;2022-10-16T04:56:03;11.70;;;6.78;;
64225;SDS011;50545;56.064;26.178;2022-10-16T04:58:30;11.40;;;6.57;;
64225;SDS011;50545;56.064;26.178;2022-10-16T05:00:57;11.68;;;6.43;;
64225;SDS011;50545;56.064;26.178;2022-10-16T05:03:24;10.93;;;5.60;;
64225;SDS011;50545;56.064;26.178;2022-10-16T05:05:52;11.70;;;7.15;;
64225;SDS011;50545;56.064;26.178;2022-10-16T05:08:19;11.32;;;6.05;;
64225;SDS011;50545;56.064;26.178;2022-10-16T05:10:47;14.68;;;7.50;;
64225;SDS011;50545;56.064;26.178;2022-10-16T05:13:14;14.63;;;7.45;;
64225;SDS011;50545;56.064;26.178;2022-10-16T05:15:41;12.90;;;7.50;;
64225;SDS011;50545;56.064;26.178;2022-10-16T05:18:08;13.10;;;6.85;;
64225;SDS011;50545;56.064;26.178;2022-10-16T05:20:36;9.82;;;5.95;;
64225;SDS011;50545;56.064;26.178;2022-10-16T05:23:03;9.57;;;5.68;;
64225;SDS011;50545;56.064;26.178;2022-10-16T05:25:30;13.30;;;7.18;;
64225;SDS011;50545;56.064;26.178;2022-10-16T05:27:57;10.10;;;5.95;;
64225;SDS011;50545;56.064;26.178;2022-10-16T05:30:25;11.02;;;6.53;;
64225;SDS011;50545;56.064;26.178;2022-10-16T05:32:52;11.40;;;7.38;;
64225;SDS011;50545;56.064;26.178;2022-10-16T05:35:19;10.10;;;5.35;;
64225;SDS011;50545;56.064;26.178;2022-10-16T05:37:47;10.75;;;5.97;;
64225;SDS011;50545;56.064;26.178;2022-10-16T05:40:15;11.43;;;6.93;;
64225;SDS011;50545;56.064;26.178;2022-10-16T05:42:43;15.48;;;9.60;;
64225;SDS011;50545;56.064;26.178;2022-10-16T05:45:10;13.32;;;7.70;;
64225;SDS011;50545;56.064;26.178;2022-10-16T05:47:39;12.63;;;7.30;;
64225;SDS011;50545;56.064;26.178;2022-10-16T05:50:06;11.15;;;7.10;;
64225;SDS011;50545;56.064;26.178;2022-10-16T05:52:34;14.20;;;8.25;;
64225;SDS011;50545;56.064;26.178;2022-10-16T05:55:01;15.43;;;7.20;;
64225;SDS011;50545;56.064;26.178;2022-10-16T05:57:29;9.48;;;6.35;;
64225;SDS011;50545;56.064;26.178;2022-10-16T05:59:56;9.35;;;5.47;;
64225;SDS011;50545;56.064;26.178;2022-10-16T06:02:24;10.82;;;6.47;;
64225;SDS011;50545;56.064;26.178;2022-10-16T06:04:51;10.23;;;5.85;;
64225;SDS011;50545;56.064;26.178;2022-10-16T06:07:22;8.63;;;5.18;;
64225;SDS011;50545;56.064;26.178;2022-10-16T06:09:50;11.15;;;6.30;;
64225;SDS011;50545;56.064;26.178;2022-10-16T06:12:18;13.18;;;6.63;;
64225;SDS011;50545;56.064;26.178;2022-10-16T06:14:46;10.90;;;6.78;;
64225;SDS011;50545;56.064;26.178;2022-10-16T06:17:14;9.88;;;5.88;;
64225;SDS011;50545;56.064;26.178;2022-10-16T06:19:41;13.52;;;7.47;;
64225;SDS011;50545;56.064;26.178;2022-10-16T06:22:09;13.48;;;7.25;;
64225;SDS011;50545;56.064;26.178;2022-10-16T06:24:36;12.02;;;6.47;;
64225;SDS011;50545;56.064;26.178;2022-10-16T06:27:04;14.13;;;7.15;;
64225;SDS011;50545;56.064;26.178;2022-10-16T06:29:31;10.93;;;6.50;;
64225;SDS011;50545;56.064;26.178;2022-10-16T06:31:58;12.85;;;7.57;;
64225;SDS011;50545;56.064;26.178;2022-10-16T06:34:26;14.23;;;7.65;;
64225;SDS011;50545;56.064;26.178;2022-10-16T06:36:53;11.05;;;6.43;;
64225;SDS011;50545;56.064;26.178;2022-10-16T06:39:20;11.38;;;6.80;;
64225;SDS011;50545;56.064;26.178;2022-10-16T06:41:47;11.40;;;6.45;;
64225;SDS011;50545;56.064;26.178;2022-10-16T06:44:15;13.82;;;7.90;;
64225;SDS011;50545;56.064;26.178;2022-10-16T06:46:42;12.23;;;7.00;;
64225;SDS011;50545;56.064;26.178;2022-10-16T06:49:09;11.25;;;7.15;;
64225;SDS011;50545;56.064;26.178;2022-10-16T06:51:37;11.77;;;6.93;;
64225;SDS011;50545;56.064;26.178;2022-10-16T06:54:08;10.30;;;6.45;;
64225;SDS011;50545;56.064;26.178;2022-10-16T06:56:36;10.32;;;6.07;;
64225;SDS011;50545;56.064;26.178;2022-10-16T06:59:04;13.77;;;7.80;;
64225;SDS011;50545;56.064;26.178;2022-10-16T07:01:31;10.15;;;5.65;;
64225;SDS011;50545;56.064;26.178;2022-10-16T07:03:59;12.68;;;6.70;;
64225;SDS011;50545;56.064;26.178;2022-10-16T07:06:27;13.35;;;7.40;;
64225;SDS011;50545;56.064;26.178;2022-10-16T07:08:57;12.02;;;6.75;;
64225;SDS011;50545;56.064;26.178;2022-10-16T07:11:24;11.23;;;6.20;;
64225;SDS011;50545;56.064;26.178;2022-10-16T07:13:52;10.93;;;6.20;;
64225;SDS011;50545;56.064;26.178;2022-10-16T07:16:25;11.98;;;6.00;;
64225;SDS011;50545;56.064;26.178;2022-10-16T07:18:54;11.95;;;6.90;;
64225;SDS011;50545;56.064;26.178;2022-10-16T07:21:27;14.63;;;6.88;;
64225;SDS011;50545;56.064;26.178;2022-10-16T07:24:02;11.90;;;6.22;;
64225;SDS011;50545;56.064;26.178;2022-10-16T07:26:32;10.27;;;6.03;;
64225;SDS011;50545;56.064;26.178;2022-10-16T07:29:02;12.57;;;6.75;;
64225;SDS011;50545;56.064;26.178;2022-10-16T07:31:30;13.98;;;7.20;;
64225;SDS011;50545;56.064;26.178;2022-10-16T07:33:58;12.60;;;7.43;;
64225;SDS011;50545;56.064;26.178;2022-10-16T07:36:27;13.52;;;7.40;;
64225;SDS011;50545;56.064;26.178;2022-10-16T07:38:54;12.02;;;7.88;;
64225;SDS011;50545;56.064;26.178;2022-10-16T07:41:25;10.45;;;6.55;;
64225;SDS011;50545;56.064;26.178;2022-10-16T07:43:53;9.50;;;6.05;;
64225;SDS011;50545;56.064;26.178;2022-10-16T07:46:22;11.82;;;6.60;;
64225;SDS011;50545;56.064;26.178;2022-10-16T07:48:49;11.73;;;7.03;;
64225;SDS011;50545;56.064;26.178;2022-10-16T07:51:18;12.95;;;7.45;;
64225;SDS011;50545;56.064;26.178;2022-10-16T07:53:47;10.88;;;6.40;;
64225;SDS011;50545;56.064;26.178;2022-10-16T07:56:15;12.70;;;8.20;;
64225;SDS011;50545;56.064;26.178;2022-10-16T07:58:44;11.43;;;7.28;;
64225;SDS011;50545;56.064;26.178;2022-10-16T08:01:12;12.18;;;7.78;;
64225;SDS011;50545;56.064;26.178;2022-10-16T08:03:44;9.05;;;5.88;;
64225;SDS011;50545;56.064;26.178;2022-10-16T08:06:13;13.45;;;6.90;;
64225;SDS011;50545;56.064;26.178;2022-10-16T08:08:41;14.70;;;7.68;;
64225;SDS011;50545;56.064;26.178;2022-10-16T08:11:09;9.93;;;5.78;;
64225;SDS011;50545;56.064;26.178;2022-10-16T08:13:36;14.45;;;8.18;;
64225;SDS011;50545;56.064;26.178;2022-10-16T08:16:04;10.50;;;5.68;;
64225;SDS011;50545;56.064;26.178;2022-10-16T08:18:35;12.68;;;7.90;;
64225;SDS011;50545;56.064;26.178;2022-10-16T08:21:02;11.50;;;7.43;;
64225;SDS011;50545;56.064;26.178;2022-10-16T08:23:31;11.63;;;7.57;;
64225;SDS011;50545;56.064;26.178;2022-10-16T08:26:03;12.90;;;7.03;;
64225;SDS011;50545;56.064;26.178;2022-10-16T08:28:32;12.57;;;7.10;;
64225;SDS011;50545;56.064;26.178;2022-10-16T08:31:13;12.65;;;6.75;;
64225;SDS011;50545;56.064;26.178;2022-10-16T08:33:43;12.30;;;7.13;;
64225;SDS011;50545;56.064;26.178;2022-10-16T08:38:40;9.73;;;5.32;;
64225;SDS011;50545;56.064;26.178;2022-10-16T08:41:13;14.80;;;8.23;;
64225;SDS011;50545;56.064;26.178;2022-10-16T08:44:26;11.52;;;6.00;;
64225;SDS011;50545;56.064;26.178;2022-10-16T08:47:12;14.98;;;8.73;;
64225;SDS011;50545;56.064;26.178;2022-10-16T08:49:41;11.75;;;7.40;;
64225;SDS011;50545;56.064;26.178;2022-10-16T08:52:15;14.10;;;8.43;;
64225;SDS011;50545;56.064;26.178;2022-10-16T08:54:43;12.20;;;6.25;;
64225;SDS011;50545;56.064;26.178;2022-10-16T08:57:15;13.55;;;7.35;;
64225;SDS011;50545;56.064;26.178;2022-10-16T08:59:49;12.32;;;7.35;;
64225;SDS011;50545;56.064;26.178;2022-10-16T09:02:34;10.70;;;6.95;;
64225;SDS011;50545;56.064;26.178;2022-10-16T09:10:31;13.75;;;7.00;;
64225;SDS011;50545;56.064;26.178;2022-10-16T09:16:39;13.68;;;8.70;;
64225;SDS011;50545;56.064;26.178;2022-10-16T09:19:13;11.80;;;6.50;;
64225;SDS011;50545;56.064;26.178;2022-10-16T09:21:57;12.45;;;6.82;;
64225;SDS011;50545;56.064;26.178;2022-10-16T09:24:29;12.15;;;7.70;;
64225;SDS011;50545;56.064;26.178;2022-10-16T09:26:56;17.25;;;8.52;;
64225;SDS011;50545;56.064;26.178;2022-10-16T09:29:23;14.45;;;8.02;;
64225;SDS011;50545;56.064;26.178;2022-10-16T09:31:52;11.90;;;7.18;;
64225;SDS011;50545;56.064;26.178;2022-10-16T09:34:41;14.68;;;7.70;;
64225;SDS011;50545;56.064;26.178;2022-10-16T09:37:28;12.05;;;7.57;;
64225;SDS011;50545;56.064;26.178;2022-10-16T09:39:57;12.18;;;7.25;;
64225;SDS011;50545;56.064;26.178;2022-10-16T09:42:32;10.57;;;6.55;;
64225;SDS011;50545;56.064;26.178;2022-10-16T09:45:03;12.27;;;7.13;;
64225;SDS011;50545;56.064;26.178;2022-10-16T09:47:31;11.23;;;6.95;;
64225;SDS011;50545;56.064;26.178;2022-10-16T09:50:05;13.32;;;8.38;;
64225;SDS011;50545;56.064;26.178;2022-10-16T09:52:49;15.98;;;8.35;;
64225;SDS011;50545;56.064;26.178;2022-10-16T09:55:17;14.45;;;8.30;;
64225;SDS011;50545;56.064;26.178;2022-10-16T09:57:51;12.00;;;7.93;;
64225;SDS011;50545;56.064;26.178;2022-10-16T10:00:20;14.13;;;7.88;;
64225;SDS011;50545;56.064;26.178;2022-10-16T10:02:51;12.43;;;7.53;;
64225;SDS011;50545;56.064;26.178;2022-10-16T10:05:26;14.55;;;8.80;;
64225;SDS011;50545;56.064;26.178;2022-10-16T10:07:58;12.03;;;8.03;;
64225;SDS011;50545;56.064;26.178;2022-10-16T10:10:30;13.32;;;7.55;;
64225;SDS011;50545;56.064;26.178;2022-10-16T10:12:59;13.20;;;7.23;;
64225;SDS011;50545;56.064;26.178;2022-10-16T10:15:27;10.98;;;6.13;;
64225;SDS011;50545;56.064;26.178;2022-10-16T10:17:59;12.07;;;7.10;;
64225;SDS011;50545;56.064;26.178;2022-10-16T10:20:30;11.50;;;6.80;;
64225;SDS011;50545;56.064;26.178;2022-10-16T10:25:59;11.68;;;6.60;;
64225;SDS011;50545;56.064;26.178;2022-10-16T10:28:34;15.07;;;8.23;;
64225;SDS011;50545;56.064;26.178;2022-10-16T10:34:24;14.73;;;7.63;;
64225;SDS011;50545;56.064;26.178;2022-10-16T10:37:41;16.23;;;7.78;;
64225;SDS011;50545;56.064;26.178;2022-10-16T10:46:22;11.52;;;6.75;;
64225;SDS011;50545;56.064;26.178;2022-10-16T10:49:16;13.30;;;7.30;;
64225;SDS011;50545;56.064;26.178;2022-10-16T10:57:10;13.85;;;8.18;;
64225;SDS011;50545;56.064;26.178;2022-10-16T10:59:58;12.30;;;8.32;;
64225;SDS011;50545;56.064;26.178;2022-10-16T11:05:23;13.23;;;7.45;;
64225;SDS011;50545;56.064;26.178;2022-10-16T11:08:08;14.68;;;8.05;;
64225;SDS011;50545;56.064;26.178;2022-10-16T11:10:44;8.68;;;5.72;;
64225;SDS011;50545;56.064;26.178;2022-10-16T11:16:17;13.38;;;7.97;;
64225;SDS011;50545;56.064;26.178;2022-10-16T11:21:22;15.52;;;7.97;;
64225;SDS011;50545;56.064;26.178;2022-10-16T11:26:24;13.82;;;7.25;;
64225;SDS011;50545;56.064;26.178;2022-10-16T11:28:55;13.07;;;7.57;;
64225;SDS011;50545;56.064;26.178;2022-10-16T11:31:29;13.38;;;7.60;;
64225;SDS011;50545;56.064;26.178;2022-10-16T11:36:53;14.68;;;7.18;;
64225;SDS011;50545;56.064;26.178;2022-10-16T11:39:30;11.73;;;7.13;;
64225;SDS011;50545;56.064;26.178;2022-10-16T11:47:31;15.40;;;8.43;;
64225;SDS011;50545;56.064;26.178;2022-10-16T11:50:38;12.27;;;7.30;;
64225;SDS011;50545;56.064;26.178;2022-10-16T11:55:50;13.52;;;7.15;;
64225;SDS011;50545;56.064;26.178;2022-10-16T12:09:36;11.82;;;7.32;;
64225;SDS011;50545;56.064;26.178;2022-10-16T12:15:02;13.88;;;6.53;;
64225;SDS011;50545;56.064;26.178;2022-10-16T12:18:19;13.48;;;7.60;;
64225;SDS011;50545;56.064;26.178;2022-10-16T12:20:57;11.00;;;6.72;;
64225;SDS011;50545;56.064;26.178;2022-10-16T12:23:30;10.32;;;6.18;;
64225;SDS011;50545;56.064;26.178;2022-10-16T12:26:05;12.35;;;6.75;;
64225;SDS011;50545;56.064;26.178;2022-10-16T12:28:33;11.70;;;7.22;;
64225;SDS011;50545;56.064;26.178;2022-10-16T12:31:01;13.32;;;7.75;;
64225;SDS011;50545;56.064;26.178;2022-10-16T12:33:33;9.18;;;6.30;;
64225;SDS011;50545;56.064;26.178;2022-10-16T12:36:03;9.85;;;6.32;;
64225;SDS011;50545;56.064;26.178;2022-10-16T12:38:38;11.35;;;6.40;;
64225;SDS011;50545;56.064;26.178;2022-10-16T12:41:34;8.48;;;5.65;;
64225;SDS011;50545;56.064;26.178;2022-10-16T12:44:20;12.38;;;7.00;;
64225;SDS011;50545;56.064;26.178;2022-10-16T12:46:52;13.43;;;7.35;;
64225;SDS011;50545;56.064;26.178;2022-10-16T12:49:29;11.18;;;6.97;;
64225;SDS011;50545;56.064;26.178;2022-10-16T12:51:56;10.27;;;7.15;;
64225;SDS011;50545;56.064;26.178;2022-10-16T12:54:27;13.32;;;7.45;;
64225;SDS011;50545;56.064;26.178;2022-10-16T12:57:10;11.02;;;6.63;;
64225;SDS011;50545;56.064;26.178;2022-10-16T13:03:27;11.38;;;6.43;;
64225;SDS011;50545;56.064;26.178;2022-10-16T13:20:03;11.07;;;6.70;;
64225;SDS011;50545;56.064;26.178;2022-10-16T13:22:54;10.57;;;6.05;;
64225;SDS011;50545;56.064;26.178;2022-10-16T13:28:15;14.90;;;6.30;;
64225;SDS011;50545;56.064;26.178;2022-10-16T13:33:30;10.13;;;6.35;;
64225;SDS011;50545;56.064;26.178;2022-10-16T13:36:01;7.82;;;4.88;;
64225;SDS011;50545;56.064;26.178;2022-10-16T13:38:31;8.85;;;5.13;;
64225;SDS011;50545;56.064;26.178;2022-10-16T13:43:31;8.65;;;4.82;;
64225;SDS011;50545;56.064;26.178;2022-10-16T13:46:05;8.85;;;5.65;;
64225;SDS011;50545;56.064;26.178;2022-10-16T13:48:33;12.32;;;6.05;;
64225;SDS011;50545;56.064;26.178;2022-10-16T13:51:02;13.07;;;6.80;;
64225;SDS011;50545;56.064;26.178;2022-10-16T13:53:30;9.57;;;5.13;;
64225;SDS011;50545;56.064;26.178;2022-10-16T13:55:58;13.35;;;7.32;;
64225;SDS011;50545;56.064;26.178;2022-10-16T13:58:26;10.30;;;5.68;;
64225;SDS011;50545;56.064;26.178;2022-10-16T14:03:29;11.85;;;6.57;;
64225;SDS011;50545;56.064;26.178;2022-10-16T14:06:00;10.75;;;6.57;;
64225;SDS011;50545;56.064;26.178;2022-10-16T14:08:30;13.25;;;7.05;;
64225;SDS011;50545;56.064;26.178;2022-10-16T14:10:58;13.68;;;6.78;;
64225;SDS011;50545;56.064;26.178;2022-10-16T14:16:02;10.07;;;6.35;;
64225;SDS011;50545;56.064;26.178;2022-10-16T14:18:34;9.13;;;5.55;;
64225;SDS011;50545;56.064;26.178;2022-10-16T14:21:04;12.07;;;6.40;;
64225;SDS011;50545;56.064;26.178;2022-10-16T14:23:37;10.63;;;5.90;;
64225;SDS011;50545;56.064;26.178;2022-10-16T14:28:36;9.90;;;6.22;;
64225;SDS011;50545;56.064;26.178;2022-10-16T14:33:46;8.63;;;5.32;;
64225;SDS011;50545;56.064;26.178;2022-10-16T14:36:13;9.63;;;5.75;;
64225;SDS011;50545;56.064;26.178;2022-10-16T14:38:49;10.70;;;6.63;;
64225;SDS011;50545;56.064;26.178;2022-10-16T14:41:43;10.95;;;6.13;;
64225;SDS011;50545;56.064;26.178;2022-10-16T14:44:14;10.23;;;5.57;;
64225;SDS011;50545;56.064;26.178;2022-10-16T14:46:43;10.07;;;6.28;;
64225;SDS011;50545;56.064;26.178;2022-10-16T14:51:39;9.35;;;6.28;;
64225;SDS011;50545;56.064;26.178;2022-10-16T14:54:16;10.40;;;6.55;;
64225;SDS011;50545;56.064;26.178;2022-10-16T14:56:51;6.68;;;4.30;;
64225;SDS011;50545;56.064;26.178;2022-10-16T14:59:24;10.00;;;5.97;;
64225;SDS011;50545;56.064;26.178;2022-10-16T15:01:59;9.23;;;5.28;;
64225;SDS011;50545;56.064;26.178;2022-10-16T15:04:27;10.65;;;6.18;;
64225;SDS011;50545;56.064;26.178;2022-10-16T15:06:54;11.57;;;6.47;;
64225;SDS011;50545;56.064;26.178;2022-10-16T15:09:21;11.55;;;5.95;;
64225;SDS011;50545;56.064;26.178;2022-10-16T15:11:48;9.27;;;5.70;;
64225;SDS011;50545;56.064;26.178;2022-10-16T15:14:16;11.82;;;5.55;;
64225;SDS011;50545;56.064;26.178;2022-10-16T15:16:43;12.77;;;6.18;;
64225;SDS011;50545;56.064;26.178;2022-10-16T15:19:10;8.93;;;5.65;;
64225;SDS011;50545;56.064;26.178;2022-10-16T15:21:37;10.15;;;6.97;;
64225;SDS011;50545;56.064;26.178;2022-10-16T15:24:05;11.55;;;5.97;;
64225;SDS011;50545;56.064;26.178;2022-10-16T15:26:43;10.40;;;6.05;;
64225;SDS011;50545;56.064;26.178;2022-10-16T15:29:12;9.35;;;5.45;;
64225;SDS011;50545;56.064;26.178;2022-10-16T15:31:39;7.93;;;4.80;;
64225;SDS011;50545;56.064;26.178;2022-10-16T15:34:09;11.00;;;5.47;;
64225;SDS011;50545;56.064;26.178;2022-10-16T15:36:37;10.77;;;6.63;;
64225;SDS011;50545;56.064;26.178;2022-10-16T15:39:14;8.93;;;5.83;;
64225;SDS011;50545;56.064;26.178;2022-10-16T15:41:43;11.18;;;7.18;;
64225;SDS011;50545;56.064;26.178;2022-10-16T15:44:14;9.45;;;6.03;;
64225;SDS011;50545;56.064;26.178;2022-10-16T15:46:41;8.23;;;5.20;;
64225;SDS011;50545;56.064;26.178;2022-10-16T15:49:09;10.23;;;6.35;;
64225;SDS011;50545;56.064;26.178;2022-10-16T15:51:37;5.78;;;3.42;;
64225;SDS011;50545;56.064;26.178;2022-10-16T15:54:06;11.35;;;5.82;;
64225;SDS011;50545;56.064;26.178;2022-10-16T15:56:34;9.23;;;6.07;;
64225;SDS011;50545;56.064;26.178;2022-10-16T15:59:04;10.23;;;5.47;;
64225;SDS011;50545;56.064;26.178;2022-10-16T16:01:34;5.53;;;3.88;;
64225;SDS011;50545;56.064;26.178;2022-10-16T16:04:02;10.98;;;5.70;;
64225;SDS011;50545;56.064;26.178;2022-10-16T16:06:40;9.30;;;5.95;;
64225;SDS011;50545;56.064;26.178;2022-10-16T16:09:11;9.77;;;6.15;;
64225;SDS011;50545;56.064;26.178;2022-10-16T16:11:40;8.98;;;5.57;;
64225;SDS011;50545;56.064;26.178;2022-10-16T16:14:10;11.00;;;6.45;;
64225;SDS011;50545;56.064;26.178;2022-10-16T16:16:39;8.35;;;5.40;;
64225;SDS011;50545;56.064;26.178;2022-10-16T16:19:07;8.18;;;5.00;;
64225;SDS011;50545;56.064;26.178;2022-10-16T16:21:37;8.93;;;5.57;;
64225;SDS011;50545;56.064;26.178;2022-10-16T16:24:05;8.32;;;5.13;;
64225;SDS011;50545;56.064;26.178;2022-10-16T16:26:35;11.43;;;6.00;;
64225;SDS011;50545;56.064;26.178;2022-10-16T16:29:06;9.93;;;6.35;;
64225;SDS011;50545;56.064;26.178;2022-10-16T16:31:34;12.07;;;6.50;;
64225;SDS011;50545;56.064;26.178;2022-10-16T16:34:02;8.95;;;5.68;;
64225;SDS011;50545;56.064;26.178;2022-10-16T16:36:29;9.32;;;5.47;;
64225;SDS011;50545;56.064;26.178;2022-10-16T16:38:57;12.93;;;6.32;;
64225;SDS011;50545;56.064;26.178;2022-10-16T16:41:25;8.38;;;5.80;;
64225;SDS011;50545;56.064;26.178;2022-10-16T16:43:54;8.85;;;5.80;;
64225;SDS011;50545;56.064;26.178;2022-10-16T16:46:21;12.90;;;6.15;;
64225;SDS011;50545;56.064;26.178;2022-10-16T16:48:49;8.38;;;5.82;;
64225;SDS011;50545;56.064;26.178;2022-10-16T16:51:17;8.82;;;6.15;;